Archival Weather

Norman Y Mineta San Jose Intl

San Jose, California (KSJC)

Report from: Wednesday, February 21, 2024 4:53 AM PST
Current time: Monday, June 17, 2024 12:42 AM PDT

Current weather – Weather history – Daily summaries
Weather forecast

Temperature7.8°C (46.0°F)
Wind chill7.1°C (44.8°F)
Dew point6.7°C (44.1°F)
Winds 3 kts (1.5 m/s, 3.5 mph) South (190°)
Visibility10 mi. (16.1 km)
Clouds Sky clear
Altimeter30.11 in.Hg (1020 mB)
Relative humidity93 %
Density altitude-932 ft. (-284 m)
Sea-level pressure101.9 kPa (1019 mB, 30.10 in.Hg)
Remarks Fully automated report
Automated weather observing station with precipitation discriminator
Flight conditions Visual Meteorological Conditions
Raw dataKSJC 211253Z AUTO 19003KT 10SM CLR 08/07 A3011 RMK AO2 SLP194 T00780067
An error has occurred. This application may no longer respond until reloaded. Reload 🗙